sensor_id;sensor_type;location;lat;lon;timestamp;temperature;humidity
20526;DHT22;10421;49.142;9.232;2023-05-23T00:01:37;22.50;98.80
20526;DHT22;10421;49.142;9.232;2023-05-23T00:04:04;22.50;98.80
20526;DHT22;10421;49.142;9.232;2023-05-23T00:06:31;22.50;98.80
20526;DHT22;10421;49.142;9.232;2023-05-23T00:08:58;22.50;98.90
20526;DHT22;10421;49.142;9.232;2023-05-23T00:11:25;22.50;99.00
20526;DHT22;10421;49.142;9.232;2023-05-23T00:13:53;22.40;99.00
20526;DHT22;10421;49.142;9.232;2023-05-23T00:16:21;22.40;99.10
20526;DHT22;10421;49.142;9.232;2023-05-23T00:18:48;22.40;99.20
20526;DHT22;10421;49.142;9.232;2023-05-23T00:21:16;22.30;99.30
20526;DHT22;10421;49.142;9.232;2023-05-23T00:23:42;22.30;99.40
20526;DHT22;10421;49.142;9.232;2023-05-23T00:26:09;22.30;99.40
20526;DHT22;10421;49.142;9.232;2023-05-23T00:28:36;22.30;99.50
20526;DHT22;10421;49.142;9.232;2023-05-23T00:31:03;22.30;99.60
20526;DHT22;10421;49.142;9.232;2023-05-23T00:33:31;22.20;99.70
20526;DHT22;10421;49.142;9.232;2023-05-23T00:35:58;22.20;99.80
20526;DHT22;10421;49.142;9.232;2023-05-23T00:38:25;22.20;99.90
20526;DHT22;10421;49.142;9.232;2023-05-23T00:40:52;22.10;99.90
20526;DHT22;10421;49.142;9.232;2023-05-23T00:43:19;22.10;99.90
20526;DHT22;10421;49.142;9.232;2023-05-23T00:45:47;22.10;99.90
20526;DHT22;10421;49.142;9.232;2023-05-23T00:48:14;22.10;99.90
20526;DHT22;10421;49.142;9.232;2023-05-23T00:50:42;22.10;99.90
20526;DHT22;10421;49.142;9.232;2023-05-23T00:53:10;22.20;99.90
20526;DHT22;10421;49.142;9.232;2023-05-23T00:55:37;22.20;99.90
20526;DHT22;10421;49.142;9.232;2023-05-23T00:58:05;22.20;99.90
20526;DHT22;10421;49.142;9.232;2023-05-23T01:00:31;22.10;99.90
20526;DHT22;10421;49.142;9.232;2023-05-23T01:03:00;22.00;99.90
20526;DHT22;10421;49.142;9.232;2023-05-23T01:05:27;22.00;99.90
20526;DHT22;10421;49.142;9.232;2023-05-23T01:07:55;21.90;99.90
20526;DHT22;10421;49.142;9.232;2023-05-23T01:10:23;21.70;99.90
20526;DHT22;10421;49.142;9.232;2023-05-23T01:13:01;21.60;99.90
20526;DHT22;10421;49.142;9.232;2023-05-23T01:15:34;21.50;99.90
20526;DHT22;10421;49.142;9.232;2023-05-23T01:18:06;21.30;99.90
20526;DHT22;10421;49.142;9.232;2023-05-23T01:20:37;21.20;99.90
20526;DHT22;10421;49.142;9.232;2023-05-23T01:23:27;21.10;99.90
20526;DHT22;10421;49.142;9.232;2023-05-23T01:26:06;21.10;99.90
20526;DHT22;10421;49.142;9.232;2023-05-23T01:28:44;21.10;99.90
20526;DHT22;10421;49.142;9.232;2023-05-23T01:31:11;21.00;99.90
20526;DHT22;10421;49.142;9.232;2023-05-23T01:33:39;21.00;99.90
20526;DHT22;10421;49.142;9.232;2023-05-23T01:36:07;21.00;99.90
20526;DHT22;10421;49.142;9.232;2023-05-23T01:38:34;21.00;99.90
20526;DHT22;10421;49.142;9.232;2023-05-23T01:41:01;21.10;99.90
20526;DHT22;10421;49.142;9.232;2023-05-23T01:43:27;21.00;99.90
20526;DHT22;10421;49.142;9.232;2023-05-23T01:45:56;21.00;99.90
20526;DHT22;10421;49.142;9.232;2023-05-23T01:48:25;21.00;99.90
20526;DHT22;10421;49.142;9.232;2023-05-23T01:50:53;21.00;99.90
20526;DHT22;10421;49.142;9.232;2023-05-23T01:53:22;21.00;99.90
20526;DHT22;10421;49.142;9.232;2023-05-23T01:55:49;21.00;99.90
20526;DHT22;10421;49.142;9.232;2023-05-23T01:58:16;21.10;99.90
20526;DHT22;10421;49.142;9.232;2023-05-23T02:00:43;21.00;99.90
20526;DHT22;10421;49.142;9.232;2023-05-23T02:03:11;21.10;99.90
20526;DHT22;10421;49.142;9.232;2023-05-23T02:05:38;21.10;99.90
20526;DHT22;10421;49.142;9.232;2023-05-23T02:08:04;21.10;99.90
20526;DHT22;10421;49.142;9.232;2023-05-23T02:10:31;21.10;99.90
20526;DHT22;10421;49.142;9.232;2023-05-23T02:12:58;21.10;99.90
20526;DHT22;10421;49.142;9.232;2023-05-23T02:15:25;21.10;99.90
20526;DHT22;10421;49.142;9.232;2023-05-23T02:17:52;21.20;99.90
20526;DHT22;10421;49.142;9.232;2023-05-23T02:20:20;21.10;99.90
20526;DHT22;10421;49.142;9.232;2023-05-23T02:22:46;21.10;99.90
20526;DHT22;10421;49.142;9.232;2023-05-23T02:25:13;21.20;99.90
20526;DHT22;10421;49.142;9.232;2023-05-23T02:27:41;21.20;99.90
20526;DHT22;10421;49.142;9.232;2023-05-23T02:30:11;21.20;99.90
20526;DHT22;10421;49.142;9.232;2023-05-23T02:32:38;21.30;99.90
20526;DHT22;10421;49.142;9.232;2023-05-23T02:35:05;21.30;99.90
20526;DHT22;10421;49.142;9.232;2023-05-23T02:37:33;21.30;99.90
20526;DHT22;10421;49.142;9.232;2023-05-23T02:40:00;21.30;99.90
20526;DHT22;10421;49.142;9.232;2023-05-23T02:42:27;21.30;99.90
20526;DHT22;10421;49.142;9.232;2023-05-23T02:44:54;21.40;99.90
20526;DHT22;10421;49.142;9.232;2023-05-23T02:47:21;21.30;99.90
20526;DHT22;10421;49.142;9.232;2023-05-23T02:49:47;21.30;99.90
20526;DHT22;10421;49.142;9.232;2023-05-23T02:52:14;21.30;99.90
20526;DHT22;10421;49.142;9.232;2023-05-23T02:54:42;21.30;99.90
20526;DHT22;10421;49.142;9.232;2023-05-23T02:57:09;21.30;99.90
20526;DHT22;10421;49.142;9.232;2023-05-23T02:59:36;21.30;99.90
20526;DHT22;10421;49.142;9.232;2023-05-23T03:02:02;21.30;99.90
20526;DHT22;10421;49.142;9.232;2023-05-23T03:04:29;21.20;99.90
20526;DHT22;10421;49.142;9.232;2023-05-23T03:06:56;21.30;99.90
20526;DHT22;10421;49.142;9.232;2023-05-23T03:09:24;21.30;99.90
20526;DHT22;10421;49.142;9.232;2023-05-23T03:11:52;21.30;99.90
20526;DHT22;10421;49.142;9.232;2023-05-23T03:14:19;21.30;99.90
20526;DHT22;10421;49.142;9.232;2023-05-23T03:16:46;21.30;99.90
20526;DHT22;10421;49.142;9.232;2023-05-23T03:19:12;21.30;99.90
20526;DHT22;10421;49.142;9.232;2023-05-23T03:21:39;21.30;99.90
20526;DHT22;10421;49.142;9.232;2023-05-23T03:24:06;21.30;99.90
20526;DHT22;10421;49.142;9.232;2023-05-23T03:26:33;21.30;99.90
20526;DHT22;10421;49.142;9.232;2023-05-23T03:29:01;21.30;99.90
20526;DHT22;10421;49.142;9.232;2023-05-23T03:31:27;21.40;99.90
20526;DHT22;10421;49.142;9.232;2023-05-23T03:33:54;21.30;99.90
20526;DHT22;10421;49.142;9.232;2023-05-23T03:36:21;21.30;99.90
20526;DHT22;10421;49.142;9.232;2023-05-23T03:38:50;21.40;99.90
20526;DHT22;10421;49.142;9.232;2023-05-23T03:41:17;21.40;99.90
20526;DHT22;10421;49.142;9.232;2023-05-23T03:43:44;21.40;99.90
20526;DHT22;10421;49.142;9.232;2023-05-23T03:46:12;21.40;99.90
20526;DHT22;10421;49.142;9.232;2023-05-23T03:48:38;21.40;99.90
20526;DHT22;10421;49.142;9.232;2023-05-23T03:51:05;21.30;99.90
20526;DHT22;10421;49.142;9.232;2023-05-23T03:53:32;21.30;99.90
20526;DHT22;10421;49.142;9.232;2023-05-23T03:56:01;21.20;99.90
20526;DHT22;10421;49.142;9.232;2023-05-23T03:58:28;21.20;99.90
20526;DHT22;10421;49.142;9.232;2023-05-23T04:00:54;21.20;99.90
20526;DHT22;10421;49.142;9.232;2023-05-23T04:03:23;21.20;99.90
20526;DHT22;10421;49.142;9.232;2023-05-23T04:05:50;21.20;99.90
20526;DHT22;10421;49.142;9.232;2023-05-23T04:08:17;21.10;99.90
20526;DHT22;10421;49.142;9.232;2023-05-23T04:10:46;21.10;99.90
20526;DHT22;10421;49.142;9.232;2023-05-23T04:13:13;21.10;99.90
20526;DHT22;10421;49.142;9.232;2023-05-23T04:15:40;21.10;99.90
20526;DHT22;10421;49.142;9.232;2023-05-23T04:18:06;21.10;99.90
20526;DHT22;10421;49.142;9.232;2023-05-23T04:20:35;21.10;99.90
20526;DHT22;10421;49.142;9.232;2023-05-23T04:23:02;21.10;99.90
20526;DHT22;10421;49.142;9.232;2023-05-23T04:25:28;21.00;99.90
20526;DHT22;10421;49.142;9.232;2023-05-23T04:27:55;21.00;99.90
20526;DHT22;10421;49.142;9.232;2023-05-23T04:30:22;21.00;99.90
20526;DHT22;10421;49.142;9.232;2023-05-23T04:32:48;21.10;99.90
20526;DHT22;10421;49.142;9.232;2023-05-23T04:35:16;21.10;99.90
20526;DHT22;10421;49.142;9.232;2023-05-23T04:37:44;21.10;99.90
20526;DHT22;10421;49.142;9.232;2023-05-23T04:40:11;21.10;99.90
20526;DHT22;10421;49.142;9.232;2023-05-23T04:42:39;21.10;99.90
20526;DHT22;10421;49.142;9.232;2023-05-23T04:45:07;21.10;99.90
20526;DHT22;10421;49.142;9.232;2023-05-23T04:47:35;21.10;99.90
20526;DHT22;10421;49.142;9.232;2023-05-23T04:50:02;21.10;99.90
20526;DHT22;10421;49.142;9.232;2023-05-23T04:52:29;21.10;99.90
20526;DHT22;10421;49.142;9.232;2023-05-23T04:54:59;21.20;99.90
20526;DHT22;10421;49.142;9.232;2023-05-23T04:57:26;21.20;99.90
20526;DHT22;10421;49.142;9.232;2023-05-23T04:59:53;21.20;99.90
20526;DHT22;10421;49.142;9.232;2023-05-23T05:02:21;21.10;99.90
20526;DHT22;10421;49.142;9.232;2023-05-23T05:04:48;21.10;99.90
20526;DHT22;10421;49.142;9.232;2023-05-23T05:07:15;21.10;99.90
20526;DHT22;10421;49.142;9.232;2023-05-23T05:09:42;21.20;99.90
20526;DHT22;10421;49.142;9.232;2023-05-23T05:12:10;21.10;99.90
20526;DHT22;10421;49.142;9.232;2023-05-23T05:14:37;21.00;99.90
20526;DHT22;10421;49.142;9.232;2023-05-23T05:17:03;21.10;99.90
20526;DHT22;10421;49.142;9.232;2023-05-23T05:19:30;21.10;99.90
20526;DHT22;10421;49.142;9.232;2023-05-23T05:21:57;21.10;99.90
20526;DHT22;10421;49.142;9.232;2023-05-23T05:24:24;21.10;99.90
20526;DHT22;10421;49.142;9.232;2023-05-23T05:26:52;21.20;99.90
20526;DHT22;10421;49.142;9.232;2023-05-23T05:29:21;21.20;99.90
20526;DHT22;10421;49.142;9.232;2023-05-23T05:31:47;21.10;99.90
20526;DHT22;10421;49.142;9.232;2023-05-23T05:34:14;21.10;99.90
20526;DHT22;10421;49.142;9.232;2023-05-23T05:36:41;21.10;99.90
20526;DHT22;10421;49.142;9.232;2023-05-23T05:39:11;21.10;99.90
20526;DHT22;10421;49.142;9.232;2023-05-23T05:41:38;21.00;99.90
20526;DHT22;10421;49.142;9.232;2023-05-23T05:44:05;21.00;99.90
20526;DHT22;10421;49.142;9.232;2023-05-23T05:46:33;21.00;99.90
20526;DHT22;10421;49.142;9.232;2023-05-23T05:49:00;21.10;99.90
20526;DHT22;10421;49.142;9.232;2023-05-23T05:51:27;21.10;99.90
20526;DHT22;10421;49.142;9.232;2023-05-23T05:53:54;21.20;99.90
20526;DHT22;10421;49.142;9.232;2023-05-23T05:56:20;21.20;99.90
20526;DHT22;10421;49.142;9.232;2023-05-23T05:58:47;21.10;99.90
20526;DHT22;10421;49.142;9.232;2023-05-23T06:01:14;21.10;99.90
20526;DHT22;10421;49.142;9.232;2023-05-23T06:03:43;21.10;99.90
20526;DHT22;10421;49.142;9.232;2023-05-23T06:06:09;21.10;99.90
20526;DHT22;10421;49.142;9.232;2023-05-23T06:08:36;21.10;99.90
20526;DHT22;10421;49.142;9.232;2023-05-23T06:11:03;21.10;99.90
20526;DHT22;10421;49.142;9.232;2023-05-23T06:13:30;21.20;99.90
20526;DHT22;10421;49.142;9.232;2023-05-23T06:15:56;21.20;99.90
20526;DHT22;10421;49.142;9.232;2023-05-23T06:18:23;21.20;99.90
20526;DHT22;10421;49.142;9.232;2023-05-23T06:20:51;21.20;99.90
20526;DHT22;10421;49.142;9.232;2023-05-23T06:23:18;21.30;99.90
20526;DHT22;10421;49.142;9.232;2023-05-23T06:25:44;21.30;99.90
20526;DHT22;10421;49.142;9.232;2023-05-23T06:28:11;21.40;99.90
20526;DHT22;10421;49.142;9.232;2023-05-23T06:30:38;21.40;99.90
20526;DHT22;10421;49.142;9.232;2023-05-23T06:33:05;21.40;99.90
20526;DHT22;10421;49.142;9.232;2023-05-23T06:35:32;21.50;99.90
20526;DHT22;10421;49.142;9.232;2023-05-23T06:38:00;21.50;99.90
20526;DHT22;10421;49.142;9.232;2023-05-23T06:40:26;21.60;99.90
20526;DHT22;10421;49.142;9.232;2023-05-23T06:42:53;21.60;99.90
20526;DHT22;10421;49.142;9.232;2023-05-23T06:45:20;21.60;99.90
20526;DHT22;10421;49.142;9.232;2023-05-23T06:47:47;21.60;99.90
20526;DHT22;10421;49.142;9.232;2023-05-23T06:50:14;21.60;99.90
20526;DHT22;10421;49.142;9.232;2023-05-23T06:52:44;21.70;99.90
20526;DHT22;10421;49.142;9.232;2023-05-23T06:55:12;21.70;99.90
20526;DHT22;10421;49.142;9.232;2023-05-23T06:57:42;21.70;99.90
20526;DHT22;10421;49.142;9.232;2023-05-23T07:00:10;21.70;99.90
20526;DHT22;10421;49.142;9.232;2023-05-23T07:02:38;21.70;99.90
20526;DHT22;10421;49.142;9.232;2023-05-23T07:05:05;21.60;99.90
20526;DHT22;10421;49.142;9.232;2023-05-23T07:07:32;21.60;99.90
20526;DHT22;10421;49.142;9.232;2023-05-23T07:09:58;21.60;99.90
20526;DHT22;10421;49.142;9.232;2023-05-23T07:12:26;21.60;99.90
20526;DHT22;10421;49.142;9.232;2023-05-23T07:14:53;21.60;99.90
20526;DHT22;10421;49.142;9.232;2023-05-23T07:17:20;21.50;99.90
20526;DHT22;10421;49.142;9.232;2023-05-23T07:19:46;21.50;99.90
20526;DHT22;10421;49.142;9.232;2023-05-23T07:22:13;21.40;99.90
20526;DHT22;10421;49.142;9.232;2023-05-23T07:24:40;21.40;99.90
20526;DHT22;10421;49.142;9.232;2023-05-23T07:27:07;21.40;99.90
20526;DHT22;10421;49.142;9.232;2023-05-23T07:29:35;21.40;99.70
20526;DHT22;10421;49.142;9.232;2023-05-23T07:32:01;21.50;99.40
20526;DHT22;10421;49.142;9.232;2023-05-23T07:34:28;21.50;99.30
20526;DHT22;10421;49.142;9.232;2023-05-23T07:36:55;21.50;99.00
20526;DHT22;10421;49.142;9.232;2023-05-23T07:39:21;21.50;98.70
20526;DHT22;10421;49.142;9.232;2023-05-23T07:41:49;21.50;98.50
20526;DHT22;10421;49.142;9.232;2023-05-23T07:44:17;21.50;98.40
20526;DHT22;10421;49.142;9.232;2023-05-23T07:46:45;21.50;98.30
20526;DHT22;10421;49.142;9.232;2023-05-23T07:49:12;21.50;98.30
20526;DHT22;10421;49.142;9.232;2023-05-23T07:51:38;21.50;98.30
20526;DHT22;10421;49.142;9.232;2023-05-23T07:54:06;21.50;98.20
20526;DHT22;10421;49.142;9.232;2023-05-23T07:56:32;21.50;98.20
20526;DHT22;10421;49.142;9.232;2023-05-23T07:58:59;21.50;98.20
20526;DHT22;10421;49.142;9.232;2023-05-23T08:01:26;21.60;98.30
20526;DHT22;10421;49.142;9.232;2023-05-23T08:03:55;21.60;98.30
20526;DHT22;10421;49.142;9.232;2023-05-23T08:06:21;21.60;97.90
20526;DHT22;10421;49.142;9.232;2023-05-23T08:08:49;21.70;97.80
20526;DHT22;10421;49.142;9.232;2023-05-23T08:11:16;21.80;97.70
20526;DHT22;10421;49.142;9.232;2023-05-23T08:13:42;21.70;97.10
20526;DHT22;10421;49.142;9.232;2023-05-23T08:16:09;21.60;96.50
20526;DHT22;10421;49.142;9.232;2023-05-23T08:18:36;21.50;96.40
20526;DHT22;10421;49.142;9.232;2023-05-23T08:21:04;21.50;96.30
20526;DHT22;10421;49.142;9.232;2023-05-23T08:23:31;21.50;96.20
20526;DHT22;10421;49.142;9.232;2023-05-23T08:25:57;21.50;95.90
20526;DHT22;10421;49.142;9.232;2023-05-23T08:28:24;21.40;95.90
20526;DHT22;10421;49.142;9.232;2023-05-23T08:30:51;21.40;95.60
20526;DHT22;10421;49.142;9.232;2023-05-23T08:33:18;21.40;95.70
20526;DHT22;10421;49.142;9.232;2023-05-23T08:35:45;21.30;95.70
20526;DHT22;10421;49.142;9.232;2023-05-23T08:38:13;21.40;95.80
20526;DHT22;10421;49.142;9.232;2023-05-23T08:40:41;21.40;95.80
20526;DHT22;10421;49.142;9.232;2023-05-23T08:43:09;21.50;95.80
20526;DHT22;10421;49.142;9.232;2023-05-23T08:45:36;21.50;95.80
20526;DHT22;10421;49.142;9.232;2023-05-23T08:48:05;21.60;95.70
20526;DHT22;10421;49.142;9.232;2023-05-23T08:50:34;21.70;95.60
20526;DHT22;10421;49.142;9.232;2023-05-23T08:53:04;21.80;95.60
20526;DHT22;10421;49.142;9.232;2023-05-23T08:55:34;22.00;95.30
20526;DHT22;10421;49.142;9.232;2023-05-23T08:58:03;22.10;95.20
20526;DHT22;10421;49.142;9.232;2023-05-23T09:00:30;22.30;94.90
20526;DHT22;10421;49.142;9.232;2023-05-23T09:02:57;22.40;94.60
20526;DHT22;10421;49.142;9.232;2023-05-23T09:05:25;22.50;94.40
20526;DHT22;10421;49.142;9.232;2023-05-23T09:07:52;22.60;94.00
20526;DHT22;10421;49.142;9.232;2023-05-23T09:10:19;22.80;93.80
20526;DHT22;10421;49.142;9.232;2023-05-23T09:12:48;22.70;93.10
20526;DHT22;10421;49.142;9.232;2023-05-23T09:15:15;22.70;93.10
20526;DHT22;10421;49.142;9.232;2023-05-23T09:17:42;22.70;92.60
20526;DHT22;10421;49.142;9.232;2023-05-23T09:20:11;22.60;92.80
20526;DHT22;10421;49.142;9.232;2023-05-23T09:22:38;22.40;92.80
20526;DHT22;10421;49.142;9.232;2023-05-23T09:25:06;22.40;92.90
20526;DHT22;10421;49.142;9.232;2023-05-23T09:27:34;22.40;93.00
20526;DHT22;10421;49.142;9.232;2023-05-23T09:30:06;22.50;93.00
20526;DHT22;10421;49.142;9.232;2023-05-23T09:32:33;22.60;92.40
20526;DHT22;10421;49.142;9.232;2023-05-23T09:35:01;22.70;92.40
20526;DHT22;10421;49.142;9.232;2023-05-23T09:37:29;22.80;92.10
20526;DHT22;10421;49.142;9.232;2023-05-23T09:39:58;22.80;91.80
20526;DHT22;10421;49.142;9.232;2023-05-23T09:42:25;22.90;91.80
20526;DHT22;10421;49.142;9.232;2023-05-23T09:44:57;23.00;91.80
20526;DHT22;10421;49.142;9.232;2023-05-23T09:47:25;23.10;91.60
20526;DHT22;10421;49.142;9.232;2023-05-23T09:49:52;23.20;91.30
20526;DHT22;10421;49.142;9.232;2023-05-23T09:52:19;23.20;91.10
20526;DHT22;10421;49.142;9.232;2023-05-23T09:54:49;23.30;90.80
20526;DHT22;10421;49.142;9.232;2023-05-23T09:57:15;23.40;90.60
20526;DHT22;10421;49.142;9.232;2023-05-23T09:59:50;23.40;90.50
20526;DHT22;10421;49.142;9.232;2023-05-23T10:02:50;23.50;90.50
20526;DHT22;10421;49.142;9.232;2023-05-23T10:05:30;23.60;90.20
20526;DHT22;10421;49.142;9.232;2023-05-23T10:08:00;23.70;89.60
20526;DHT22;10421;49.142;9.232;2023-05-23T10:10:30;23.70;89.30
20526;DHT22;10421;49.142;9.232;2023-05-23T10:12:57;23.80;89.40
20526;DHT22;10421;49.142;9.232;2023-05-23T10:15:29;24.00;89.40
20526;DHT22;10421;49.142;9.232;2023-05-23T10:18:02;24.20;88.30
20526;DHT22;10421;49.142;9.232;2023-05-23T10:20:32;24.40;86.90
20526;DHT22;10421;49.142;9.232;2023-05-23T10:23:00;24.50;86.40
20526;DHT22;10421;49.142;9.232;2023-05-23T10:25:27;24.60;85.30
20526;DHT22;10421;49.142;9.232;2023-05-23T10:27:55;24.70;85.30
20526;DHT22;10421;49.142;9.232;2023-05-23T10:30:24;24.80;84.70
20526;DHT22;10421;49.142;9.232;2023-05-23T10:32:52;25.00;84.20
20526;DHT22;10421;49.142;9.232;2023-05-23T10:35:24;25.10;83.10
20526;DHT22;10421;49.142;9.232;2023-05-23T10:37:58;25.20;82.50
20526;DHT22;10421;49.142;9.232;2023-05-23T10:40:33;25.40;82.20
20526;DHT22;10421;49.142;9.232;2023-05-23T10:43:04;25.40;80.80
20526;DHT22;10421;49.142;9.232;2023-05-23T10:45:39;25.40;81.40
20526;DHT22;10421;49.142;9.232;2023-05-23T10:48:20;25.30;80.30
20526;DHT22;10421;49.142;9.232;2023-05-23T10:51:01;25.30;80.80
20526;DHT22;10421;49.142;9.232;2023-05-23T10:53:30;25.20;80.20
20526;DHT22;10421;49.142;9.232;2023-05-23T10:55:57;25.00;79.40
20526;DHT22;10421;49.142;9.232;2023-05-23T10:58:24;24.80;79.90
20526;DHT22;10421;49.142;9.232;2023-05-23T11:00:52;24.60;81.10
20526;DHT22;10421;49.142;9.232;2023-05-23T11:03:30;24.30;82.10
20526;DHT22;10421;49.142;9.232;2023-05-23T11:06:00;24.00;82.60
20526;DHT22;10421;49.142;9.232;2023-05-23T11:08:27;24.00;83.70
20526;DHT22;10421;49.142;9.232;2023-05-23T11:11:03;23.90;83.80
20526;DHT22;10421;49.142;9.232;2023-05-23T11:13:56;23.90;83.20
20526;DHT22;10421;49.142;9.232;2023-05-23T11:16:26;24.00;83.90
20526;DHT22;10421;49.142;9.232;2023-05-23T11:19:20;24.10;84.00
20526;DHT22;10421;49.142;9.232;2023-05-23T11:21:53;24.10;84.40
20526;DHT22;10421;49.142;9.232;2023-05-23T11:24:20;24.10;84.90
20526;DHT22;10421;49.142;9.232;2023-05-23T11:26:51;24.20;84.70
20526;DHT22;10421;49.142;9.232;2023-05-23T11:29:18;24.30;84.60
20526;DHT22;10421;49.142;9.232;2023-05-23T11:31:45;24.20;84.40
20526;DHT22;10421;49.142;9.232;2023-05-23T11:34:12;24.20;84.50
20526;DHT22;10421;49.142;9.232;2023-05-23T11:36:38;24.10;84.80
20526;DHT22;10421;49.142;9.232;2023-05-23T11:39:07;24.10;85.20
20526;DHT22;10421;49.142;9.232;2023-05-23T11:41:34;24.10;85.30
20526;DHT22;10421;49.142;9.232;2023-05-23T11:44:09;24.10;84.70
20526;DHT22;10421;49.142;9.232;2023-05-23T11:46:36;24.00;84.70
20526;DHT22;10421;49.142;9.232;2023-05-23T11:49:09;24.00;84.70
20526;DHT22;10421;49.142;9.232;2023-05-23T11:51:36;24.00;84.80
20526;DHT22;10421;49.142;9.232;2023-05-23T11:54:03;24.00;84.70
20526;DHT22;10421;49.142;9.232;2023-05-23T11:56:38;24.00;84.40
20526;DHT22;10421;49.142;9.232;2023-05-23T11:59:05;24.00;83.70
20526;DHT22;10421;49.142;9.232;2023-05-23T12:01:32;24.00;83.70
20526;DHT22;10421;49.142;9.232;2023-05-23T12:03:59;24.10;84.00
20526;DHT22;10421;49.142;9.232;2023-05-23T12:06:25;24.10;84.00
20526;DHT22;10421;49.142;9.232;2023-05-23T12:08:52;24.10;83.70
20526;DHT22;10421;49.142;9.232;2023-05-23T12:11:19;24.20;83.60
20526;DHT22;10421;49.142;9.232;2023-05-23T12:13:51;24.20;83.60
20526;DHT22;10421;49.142;9.232;2023-05-23T12:16:20;24.20;83.40
20526;DHT22;10421;49.142;9.232;2023-05-23T12:18:46;24.30;83.70
20526;DHT22;10421;49.142;9.232;2023-05-23T12:21:13;24.30;83.60
20526;DHT22;10421;49.142;9.232;2023-05-23T12:23:41;24.40;83.30
20526;DHT22;10421;49.142;9.232;2023-05-23T12:26:07;24.40;82.50
20526;DHT22;10421;49.142;9.232;2023-05-23T12:28:36;24.40;82.20
20526;DHT22;10421;49.142;9.232;2023-05-23T12:31:11;24.40;81.90
20526;DHT22;10421;49.142;9.232;2023-05-23T12:33:38;24.30;80.90
20526;DHT22;10421;49.142;9.232;2023-05-23T12:36:08;24.30;80.80
20526;DHT22;10421;49.142;9.232;2023-05-23T12:38:35;24.20;81.00
20526;DHT22;10421;49.142;9.232;2023-05-23T12:41:09;24.20;81.10
20526;DHT22;10421;49.142;9.232;2023-05-23T12:43:37;24.20;81.30
20526;DHT22;10421;49.142;9.232;2023-05-23T12:46:04;24.20;81.10
20526;DHT22;10421;49.142;9.232;2023-05-23T12:48:33;24.20;81.20
20526;DHT22;10421;49.142;9.232;2023-05-23T12:51:00;24.20;81.20
20526;DHT22;10421;49.142;9.232;2023-05-23T12:53:28;24.20;81.50
20526;DHT22;10421;49.142;9.232;2023-05-23T12:55:54;24.20;81.90
20526;DHT22;10421;49.142;9.232;2023-05-23T12:58:21;24.20;82.00
20526;DHT22;10421;49.142;9.232;2023-05-23T13:00:48;24.20;82.10
20526;DHT22;10421;49.142;9.232;2023-05-23T13:03:15;24.30;81.20
20526;DHT22;10421;49.142;9.232;2023-05-23T13:05:43;24.40;80.70
20526;DHT22;10421;49.142;9.232;2023-05-23T13:08:10;24.40;80.30
20526;DHT22;10421;49.142;9.232;2023-05-23T13:10:37;24.50;80.30
20526;DHT22;10421;49.142;9.232;2023-05-23T13:13:04;24.60;80.20
20526;DHT22;10421;49.142;9.232;2023-05-23T13:15:31;24.70;80.40
20526;DHT22;10421;49.142;9.232;2023-05-23T13:17:58;24.80;80.00
20526;DHT22;10421;49.142;9.232;2023-05-23T13:20:28;24.80;80.10
20526;DHT22;10421;49.142;9.232;2023-05-23T13:22:57;24.90;80.00
20526;DHT22;10421;49.142;9.232;2023-05-23T13:25:24;24.90;79.50
20526;DHT22;10421;49.142;9.232;2023-05-23T13:27:51;25.00;79.20
20526;DHT22;10421;49.142;9.232;2023-05-23T13:30:18;25.00;79.30
20526;DHT22;10421;49.142;9.232;2023-05-23T13:32:45;25.00;78.90
20526;DHT22;10421;49.142;9.232;2023-05-23T13:35:12;25.10;78.80
20526;DHT22;10421;49.142;9.232;2023-05-23T13:37:39;25.20;78.60
20526;DHT22;10421;49.142;9.232;2023-05-23T13:40:11;25.40;79.00
20526;DHT22;10421;49.142;9.232;2023-05-23T13:42:38;25.60;77.90
20526;DHT22;10421;49.142;9.232;2023-05-23T13:45:06;25.70;76.80
20526;DHT22;10421;49.142;9.232;2023-05-23T13:47:33;25.90;76.30
20526;DHT22;10421;49.142;9.232;2023-05-23T13:50:00;25.90;75.80
20526;DHT22;10421;49.142;9.232;2023-05-23T13:52:27;26.00;75.00
20526;DHT22;10421;49.142;9.232;2023-05-23T13:54:54;26.00;75.00
20526;DHT22;10421;49.142;9.232;2023-05-23T13:57:22;26.00;75.20
20526;DHT22;10421;49.142;9.232;2023-05-23T13:59:49;26.10;75.10
20526;DHT22;10421;49.142;9.232;2023-05-23T14:02:15;26.20;74.00
20526;DHT22;10421;49.142;9.232;2023-05-23T14:04:42;26.30;73.80
20526;DHT22;10421;49.142;9.232;2023-05-23T14:07:09;26.30;73.90
20526;DHT22;10421;49.142;9.232;2023-05-23T14:09:35;26.40;73.60
20526;DHT22;10421;49.142;9.232;2023-05-23T14:12:02;26.30;73.40
20526;DHT22;10421;49.142;9.232;2023-05-23T14:14:31;26.20;72.90
20526;DHT22;10421;49.142;9.232;2023-05-23T14:16:57;26.10;73.10
20526;DHT22;10421;49.142;9.232;2023-05-23T14:19:24;26.10;72.80
20526;DHT22;10421;49.142;9.232;2023-05-23T14:21:51;25.90;73.30
20526;DHT22;10421;49.142;9.232;2023-05-23T14:24:17;25.90;73.50
20526;DHT22;10421;49.142;9.232;2023-05-23T14:26:44;25.80;73.90
20526;DHT22;10421;49.142;9.232;2023-05-23T14:29:11;25.70;74.00
20526;DHT22;10421;49.142;9.232;2023-05-23T14:31:39;25.70;74.30
20526;DHT22;10421;49.142;9.232;2023-05-23T14:34:06;25.50;75.30
20526;DHT22;10421;49.142;9.232;2023-05-23T14:36:33;25.40;76.20
20526;DHT22;10421;49.142;9.232;2023-05-23T14:39:01;25.20;76.80
20526;DHT22;10421;49.142;9.232;2023-05-23T14:41:29;25.10;77.20
20526;DHT22;10421;49.142;9.232;2023-05-23T14:43:57;25.10;77.50
20526;DHT22;10421;49.142;9.232;2023-05-23T14:46:23;25.00;77.70
20526;DHT22;10421;49.142;9.232;2023-05-23T14:48:51;25.00;77.80
20526;DHT22;10421;49.142;9.232;2023-05-23T14:51:18;25.00;78.00
20526;DHT22;10421;49.142;9.232;2023-05-23T14:53:45;25.10;77.80
20526;DHT22;10421;49.142;9.232;2023-05-23T14:56:12;25.10;77.80
20526;DHT22;10421;49.142;9.232;2023-05-23T14:58:38;25.10;77.90
20526;DHT22;10421;49.142;9.232;2023-05-23T15:01:10;25.20;78.50
20526;DHT22;10421;49.142;9.232;2023-05-23T15:03:37;25.20;77.20
20526;DHT22;10421;49.142;9.232;2023-05-23T15:06:05;25.30;77.10
20526;DHT22;10421;49.142;9.232;2023-05-23T15:08:32;25.40;77.00
20526;DHT22;10421;49.142;9.232;2023-05-23T15:10:59;25.50;76.90
20526;DHT22;10421;49.142;9.232;2023-05-23T15:13:26;25.60;76.40
20526;DHT22;10421;49.142;9.232;2023-05-23T15:15:53;25.60;75.80
20526;DHT22;10421;49.142;9.232;2023-05-23T15:18:19;25.70;75.90
20526;DHT22;10421;49.142;9.232;2023-05-23T15:20:46;25.70;75.90
20526;DHT22;10421;49.142;9.232;2023-05-23T15:23:14;25.60;75.90
20526;DHT22;10421;49.142;9.232;2023-05-23T15:25:41;25.50;76.00
20526;DHT22;10421;49.142;9.232;2023-05-23T15:28:08;25.40;76.00
20526;DHT22;10421;49.142;9.232;2023-05-23T15:30:34;25.40;76.20
20526;DHT22;10421;49.142;9.232;2023-05-23T15:33:01;25.30;76.10
20526;DHT22;10421;49.142;9.232;2023-05-23T15:35:28;25.20;76.80